createdAt,value
2017-10-18T00:02:02.730Z,10.10
2017-10-18T00:04:30.306Z,10.10
2017-10-18T00:06:57.881Z,10.10
2017-10-18T00:09:26.213Z,10.10
2017-10-18T00:11:53.791Z,10.10
2017-10-18T00:14:21.353Z,10.00
2017-10-18T00:16:48.913Z,10.00
2017-10-18T00:19:16.474Z,10.00
2017-10-18T00:21:44.061Z,10.00
2017-10-18T00:24:12.414Z,9.90
2017-10-18T00:26:39.990Z,9.90
2017-10-18T00:29:08.299Z,9.80
2017-10-18T00:31:35.876Z,9.90
2017-10-18T00:34:03.433Z,9.80
2017-10-18T00:36:30.987Z,9.80
2017-10-18T00:38:58.580Z,9.70
2017-10-18T00:41:26.133Z,9.80
2017-10-18T00:43:53.686Z,9.70
2017-10-18T00:46:21.234Z,9.70
2017-10-18T00:48:48.828Z,9.70
2017-10-18T00:51:16.394Z,9.70
2017-10-18T00:53:43.948Z,9.60
2017-10-18T00:56:11.514Z,9.60
2017-10-18T00:58:39.073Z,9.60
2017-10-18T01:01:06.656Z,9.60
2017-10-18T01:03:34.986Z,9.50
2017-10-18T01:06:02.570Z,9.50
2017-10-18T01:08:30.128Z,9.50
2017-10-18T01:10:57.694Z,9.50
2017-10-18T01:13:25.252Z,9.40
2017-10-18T01:15:52.844Z,9.40
2017-10-18T01:18:21.149Z,9.40
2017-10-18T01:20:48.713Z,9.30
2017-10-18T01:23:16.283Z,9.40
2017-10-18T01:25:43.837Z,9.30
2017-10-18T01:28:11.404Z,9.30
2017-10-18T01:30:38.986Z,9.30
2017-10-18T01:33:06.552Z,9.30
2017-10-18T01:35:34.101Z,9.20
2017-10-18T01:38:01.660Z,9.30
2017-10-18T01:40:29.213Z,9.20
2017-10-18T01:42:56.769Z,9.20
2017-10-18T01:45:24.347Z,9.20
2017-10-18T01:47:51.942Z,9.10
2017-10-18T01:50:20.281Z,9.20
2017-10-18T01:52:47.843Z,9.10
2017-10-18T01:55:15.403Z,9.20
2017-10-18T01:57:42.937Z,9.20
2017-10-18T02:00:10.504Z,9.10
2017-10-18T02:02:38.052Z,9.10
2017-10-18T02:05:05.629Z,9.10
2017-10-18T02:07:33.185Z,9.10
2017-10-18T02:10:00.745Z,9.10
2017-10-18T02:12:28.469Z,9.00
2017-10-18T02:14:56.152Z,8.90
2017-10-18T02:17:23.705Z,8.90
2017-10-18T02:19:51.269Z,9.00
2017-10-18T02:22:18.805Z,8.90
2017-10-18T02:24:47.109Z,8.90
2017-10-18T02:27:14.668Z,8.80
2017-10-18T02:29:42.211Z,8.90
2017-10-18T02:32:09.774Z,8.90
2017-10-18T02:34:37.305Z,8.90
2017-10-18T02:37:05.645Z,8.90
2017-10-18T02:39:40.158Z,8.90
2017-10-18T02:42:07.728Z,8.80
2017-10-18T02:44:35.314Z,8.80
2017-10-18T02:47:02.857Z,8.80
2017-10-18T02:49:30.481Z,8.70
2017-10-18T02:51:58.053Z,8.80
2017-10-18T02:54:25.607Z,8.70
2017-10-18T02:56:53.146Z,8.70
2017-10-18T02:59:20.718Z,8.70
2017-10-18T03:01:48.261Z,8.60
2017-10-18T03:04:16.597Z,8.60
2017-10-18T03:06:44.137Z,8.60
2017-10-18T03:09:11.711Z,8.60
2017-10-18T03:11:39.284Z,8.60
2017-10-18T03:14:06.851Z,8.60
2017-10-18T03:16:34.413Z,8.60
2017-10-18T03:19:01.953Z,8.50
2017-10-18T03:21:29.500Z,8.50
2017-10-18T03:23:57.097Z,8.50
2017-10-18T03:26:24.679Z,8.50
2017-10-18T03:28:53.034Z,8.50
2017-10-18T03:31:20.609Z,8.50
2017-10-18T03:33:48.950Z,8.50
2017-10-18T03:36:16.495Z,8.50
2017-10-18T03:38:44.054Z,8.50
2017-10-18T03:41:11.617Z,8.50
2017-10-18T03:43:39.146Z,8.50
2017-10-18T03:46:06.728Z,8.50
2017-10-18T03:48:34.263Z,8.50
2017-10-18T03:51:01.806Z,8.50
2017-10-18T03:53:30.150Z,8.50
2017-10-18T03:55:57.705Z,8.50
2017-10-18T03:58:25.279Z,8.50
2017-10-18T04:00:52.844Z,8.50
2017-10-18T04:03:20.412Z,8.50
2017-10-18T04:05:47.957Z,8.50
2017-10-18T04:08:15.529Z,8.50
2017-10-18T04:10:43.092Z,8.50
2017-10-18T04:13:10.655Z,8.50
2017-10-18T04:15:38.986Z,8.50
2017-10-18T04:18:06.545Z,8.50
2017-10-18T04:20:34.094Z,8.50
2017-10-18T04:23:01.677Z,8.50
2017-10-18T04:25:29.225Z,8.50
2017-10-18T04:27:56.787Z,8.50
2017-10-18T04:30:24.351Z,8.50
2017-10-18T04:32:51.891Z,8.50
2017-10-18T04:35:19.464Z,8.50
2017-10-18T04:37:47.011Z,8.50
2017-10-18T04:40:14.603Z,8.50
2017-10-18T04:42:42.213Z,8.50
2017-10-18T04:45:09.781Z,8.50
2017-10-18T04:47:37.313Z,8.40
2017-10-18T04:50:05.659Z,8.40
2017-10-18T04:52:33.225Z,8.40
2017-10-18T04:55:00.802Z,8.40
2017-10-18T04:57:28.349Z,8.30
2017-10-18T04:59:55.930Z,8.30
2017-10-18T05:02:24.269Z,8.30
2017-10-18T05:04:51.877Z,8.30
2017-10-18T05:07:20.199Z,8.20
2017-10-18T05:09:47.754Z,8.20
2017-10-18T05:12:15.314Z,8.20
2017-10-18T05:14:42.856Z,8.20
2017-10-18T05:17:10.437Z,8.20
2017-10-18T05:19:37.988Z,8.20
2017-10-18T05:22:05.610Z,8.20
2017-10-18T05:24:33.967Z,8.20
2017-10-18T05:27:01.506Z,8.20
2017-10-18T05:29:29.064Z,8.20
2017-10-18T05:31:56.605Z,8.20
2017-10-18T05:34:24.230Z,8.10
2017-10-18T05:36:52.666Z,8.10
2017-10-18T05:39:20.241Z,8.00
2017-10-18T05:41:47.813Z,8.10
2017-10-18T05:44:15.370Z,8.10
2017-10-18T05:46:42.927Z,8.10
2017-10-18T05:49:10.497Z,8.10
2017-10-18T05:51:38.078Z,8.10
2017-10-18T05:54:06.434Z,8.20
2017-10-18T05:56:34.791Z,8.30
2017-10-18T05:59:02.360Z,8.20
2017-10-18T06:01:30.114Z,8.30
2017-10-18T06:03:57.662Z,8.30
2017-10-18T06:06:25.239Z,8.30
2017-10-18T06:08:52.803Z,8.30
2017-10-18T06:11:20.375Z,8.40
2017-10-18T06:13:47.921Z,8.40
2017-10-18T06:16:15.726Z,8.40
2017-10-18T06:18:44.080Z,8.50
2017-10-18T06:21:11.717Z,8.50
2017-10-18T06:23:39.301Z,8.50
2017-10-18T06:26:06.869Z,8.50
2017-10-18T06:28:35.260Z,8.60
2017-10-18T06:31:03.610Z,8.70
2017-10-18T06:33:31.246Z,8.70
2017-10-18T06:35:58.842Z,8.70
2017-10-18T06:38:26.430Z,8.70
2017-10-18T06:40:54.767Z,8.90
2017-10-18T06:43:22.341Z,8.80
2017-10-18T06:45:49.914Z,8.90
2017-10-18T06:48:18.288Z,9.00
2017-10-18T06:50:45.858Z,9.00
2017-10-18T06:53:14.174Z,9.10
2017-10-18T06:55:41.748Z,9.10
2017-10-18T06:58:09.302Z,9.10
2017-10-18T07:00:36.897Z,9.20
2017-10-18T07:03:04.470Z,9.20
2017-10-18T07:05:32.787Z,9.30
2017-10-18T07:08:01.096Z,9.30
2017-10-18T07:10:28.669Z,9.30
2017-10-18T07:12:56.205Z,9.40
2017-10-18T07:15:23.762Z,9.50
2017-10-18T07:17:52.691Z,9.50
2017-10-18T07:20:20.274Z,9.60
2017-10-18T07:22:47.851Z,9.70
2017-10-18T07:25:15.431Z,9.80
2017-10-18T07:27:43.027Z,9.80
2017-10-18T07:30:10.597Z,9.90
2017-10-18T07:32:38.944Z,10.00
2017-10-18T07:35:12.510Z,9.90
2017-10-18T07:37:40.057Z,10.10
2017-10-18T07:40:07.601Z,10.20
2017-10-18T07:42:35.924Z,10.30
2017-10-18T07:45:03.475Z,10.30
2017-10-18T07:47:31.020Z,10.40
2017-10-18T07:49:58.605Z,10.50
2017-10-18T07:52:26.177Z,10.60
2017-10-18T07:54:53.742Z,10.70
2017-10-18T07:57:21.302Z,10.80
2017-10-18T07:59:48.873Z,10.80
2017-10-18T08:02:16.466Z,11.00
2017-10-18T08:04:44.800Z,11.20
2017-10-18T08:07:12.357Z,11.20
2017-10-18T08:09:39.922Z,11.30
2017-10-18T08:12:07.487Z,11.40
2017-10-18T08:14:35.068Z,11.50
2017-10-18T08:17:02.669Z,11.60
2017-10-18T08:19:30.222Z,11.60
2017-10-18T08:21:57.762Z,11.80
2017-10-18T08:24:26.111Z,12.00
2017-10-18T08:26:53.654Z,11.90
2017-10-18T08:29:21.276Z,12.10
2017-10-18T08:31:48.855Z,12.10
2017-10-18T08:34:16.434Z,12.20
2017-10-18T08:36:43.995Z,12.20
2017-10-18T08:39:11.564Z,12.30
2017-10-18T08:41:39.159Z,12.40
2017-10-18T08:44:07.501Z,12.70
2017-10-18T08:46:35.083Z,12.70
2017-10-18T08:49:02.642Z,12.90
2017-10-18T08:51:30.224Z,13.00
2017-10-18T08:53:58.559Z,13.10
2017-10-18T08:56:26.148Z,13.10
2017-10-18T08:58:53.718Z,13.30
2017-10-18T09:01:24.312Z,13.40
2017-10-18T09:03:49.669Z,13.40
2017-10-18T09:06:17.216Z,13.60
2017-10-18T09:08:45.555Z,13.80
2017-10-18T09:11:13.122Z,13.80
2017-10-18T09:13:40.719Z,13.80
2017-10-18T09:16:09.037Z,14.10
2017-10-18T09:18:37.381Z,14.30
2017-10-18T09:21:05.737Z,14.40
2017-10-18T09:23:33.312Z,14.40
2017-10-18T09:26:01.637Z,14.70
2017-10-18T09:28:29.240Z,14.70
2017-10-18T09:30:56.791Z,14.90
2017-10-18T09:33:24.368Z,15.00
2017-10-18T09:35:52.708Z,15.10
2017-10-18T09:38:20.280Z,15.10
2017-10-18T09:40:47.842Z,15.30
2017-10-18T09:43:15.450Z,15.40
2017-10-18T09:45:43.027Z,15.40
2017-10-18T09:48:10.613Z,15.50
2017-10-18T09:50:38.201Z,15.50
2017-10-18T09:53:05.758Z,15.60
2017-10-18T09:55:34.109Z,15.70
2017-10-18T09:58:01.680Z,15.70
2017-10-18T10:00:29.267Z,15.80
2017-10-18T10:02:57.581Z,16.20
2017-10-18T10:05:25.128Z,16.20
2017-10-18T10:07:52.689Z,16.30
2017-10-18T10:10:20.366Z,16.40
2017-10-18T10:12:47.914Z,16.50
2017-10-18T10:15:15.465Z,16.70
2017-10-18T10:17:43.801Z,17.20
2017-10-18T10:20:11.371Z,17.10
2017-10-18T10:22:38.950Z,17.60
2017-10-18T10:25:06.518Z,18.00
2017-10-18T10:27:34.863Z,18.60
2017-10-18T10:30:02.390Z,18.60
2017-10-18T10:32:29.958Z,18.70
2017-10-18T10:34:57.497Z,18.80
2017-10-18T10:37:25.190Z,19.00
2017-10-18T10:39:52.761Z,19.10
2017-10-18T10:42:20.325Z,19.10
2017-10-18T10:44:48.032Z,19.30
2017-10-18T10:47:17.217Z,19.70
2017-10-18T10:49:44.786Z,20.10
2017-10-18T10:52:13.253Z,20.50
2017-10-18T10:54:43.054Z,20.90
2017-10-18T10:57:13.282Z,20.90
2017-10-18T10:59:41.188Z,21.20
2017-10-18T11:02:09.248Z,21.70
2017-10-18T11:04:36.802Z,21.80
2017-10-18T11:07:04.374Z,21.90
2017-10-18T11:09:31.930Z,22.10
2017-10-18T11:11:59.489Z,22.10
2017-10-18T11:14:27.047Z,22.40
2017-10-18T11:16:54.632Z,22.70
2017-10-18T11:19:22.194Z,22.70
2017-10-18T11:21:49.765Z,23.10
2017-10-18T11:24:17.322Z,23.20
2017-10-18T11:26:44.897Z,23.50
2017-10-18T11:29:12.817Z,23.80
2017-10-18T11:31:40.383Z,24.10
2017-10-18T11:34:07.941Z,24.30
2017-10-18T11:36:35.537Z,24.60
2017-10-18T11:39:03.141Z,24.70
2017-10-18T11:41:31.469Z,24.50
2017-10-18T11:43:59.050Z,24.50
2017-10-18T11:46:26.606Z,24.40
2017-10-18T11:48:54.157Z,24.50
2017-10-18T11:51:21.823Z,24.30
2017-10-18T11:53:49.373Z,24.50
2017-10-18T11:56:16.938Z,24.60
2017-10-18T11:58:44.477Z,25.00
2017-10-18T12:01:12.056Z,25.40
2017-10-18T12:03:39.630Z,25.40
2017-10-18T12:06:07.221Z,25.40
2017-10-18T12:08:35.565Z,25.00
2017-10-18T12:11:03.106Z,24.90
2017-10-18T12:13:30.673Z,25.40
2017-10-18T12:15:58.225Z,25.60
2017-10-18T12:18:25.811Z,25.90
2017-10-18T12:20:53.406Z,25.90
2017-10-18T12:23:21.744Z,26.00
2017-10-18T12:25:49.339Z,26.00
2017-10-18T12:28:17.684Z,25.80
2017-10-18T12:30:45.279Z,25.70
2017-10-18T12:33:13.612Z,26.80
2017-10-18T12:35:41.181Z,26.80
2017-10-18T12:38:08.732Z,26.60
2017-10-18T12:40:36.295Z,27.00
2017-10-18T12:43:03.854Z,26.90
2017-10-18T12:45:31.425Z,26.80
2017-10-18T12:47:58.999Z,26.90
2017-10-18T12:50:27.496Z,26.80
2017-10-18T12:52:57.204Z,27.20
2017-10-18T12:55:24.925Z,27.20
2017-10-18T12:57:52.475Z,27.70
2017-10-18T13:00:20.062Z,28.10
2017-10-18T13:02:47.704Z,27.80
2017-10-18T13:05:15.298Z,27.70
2017-10-18T13:07:42.863Z,27.70
2017-10-18T13:10:11.235Z,27.60
2017-10-18T13:12:38.813Z,27.60
2017-10-18T13:15:07.117Z,27.70
2017-10-18T13:17:34.683Z,27.70
2017-10-18T13:20:03.453Z,27.90
2017-10-18T13:22:31.699Z,27.10
2017-10-18T13:24:59.275Z,27.40
2017-10-18T13:27:27.648Z,27.50
2017-10-18T13:29:55.996Z,27.90
2017-10-18T13:32:23.546Z,27.90
2017-10-18T13:34:51.116Z,27.60
2017-10-18T13:37:18.675Z,27.50
2017-10-18T13:39:46.261Z,27.10
2017-10-18T13:42:14.605Z,28.00
2017-10-18T13:44:42.170Z,28.00
2017-10-18T13:47:09.727Z,28.60
2017-10-18T13:49:37.307Z,28.20
2017-10-18T13:52:04.893Z,28.40
2017-10-18T13:54:33.292Z,28.00
2017-10-18T13:57:00.879Z,28.00
2017-10-18T13:59:28.454Z,28.30
2017-10-18T14:01:56.030Z,27.80
2017-10-18T14:04:23.570Z,27.40
2017-10-18T14:06:51.145Z,27.40
2017-10-18T14:09:18.733Z,27.20
2017-10-18T14:11:47.075Z,27.10
2017-10-18T14:14:14.626Z,27.10
2017-10-18T14:16:42.280Z,26.80
2017-10-18T14:19:09.837Z,27.10
2017-10-18T14:21:37.432Z,27.00
2017-10-18T14:24:04.989Z,27.30
2017-10-18T14:26:32.533Z,26.60
2017-10-18T14:29:00.098Z,26.50
2017-10-18T14:31:27.666Z,26.50
2017-10-18T14:33:55.235Z,26.10
2017-10-18T14:36:22.798Z,26.00
2017-10-18T14:38:50.358Z,25.90
2017-10-18T14:41:17.900Z,25.60
2017-10-18T14:43:45.485Z,25.40
2017-10-18T14:46:13.825Z,25.10
2017-10-18T14:48:41.400Z,25.10
2017-10-18T14:51:08.965Z,25.00
2017-10-18T14:53:36.506Z,24.60
2017-10-18T14:56:04.108Z,24.30
2017-10-18T14:58:32.467Z,24.10
2017-10-18T15:01:00.104Z,24.10
2017-10-18T15:03:27.660Z,24.20
2017-10-18T15:05:55.237Z,23.70
2017-10-18T15:08:22.822Z,23.60
2017-10-18T15:10:51.170Z,23.40
2017-10-18T15:13:18.754Z,23.40
2017-10-18T15:15:46.330Z,23.30
2017-10-18T15:18:14.634Z,22.80
2017-10-18T15:20:42.210Z,22.80
2017-10-18T15:23:09.760Z,22.60
2017-10-18T15:25:38.081Z,22.40
2017-10-18T15:28:05.618Z,22.40
2017-10-18T15:30:33.202Z,22.40
2017-10-18T15:33:00.730Z,22.30
2017-10-18T15:35:28.294Z,22.10
2017-10-18T15:37:55.851Z,21.90
2017-10-18T15:40:23.427Z,21.70
2017-10-18T15:42:51.000Z,21.60
2017-10-18T15:45:18.764Z,21.50
2017-10-18T15:47:46.322Z,21.30
2017-10-18T15:50:13.866Z,21.20
2017-10-18T15:52:41.459Z,21.10
2017-10-18T15:55:09.020Z,20.90
2017-10-18T15:57:36.566Z,20.70
2017-10-18T16:00:04.196Z,20.50
2017-10-18T16:02:31.770Z,20.40
2017-10-18T16:04:59.342Z,20.30
2017-10-18T16:07:26.921Z,20.10
2017-10-18T16:09:54.512Z,20.00
2017-10-18T16:12:22.836Z,19.70
2017-10-18T16:14:50.503Z,19.70
2017-10-18T16:17:18.429Z,19.60
2017-10-18T16:19:46.047Z,19.40
2017-10-18T16:22:13.610Z,19.30
2017-10-18T16:24:41.190Z,19.10
2017-10-18T16:27:09.528Z,18.80
2017-10-18T16:29:37.400Z,18.80
2017-10-18T16:32:04.999Z,18.60
2017-10-18T16:34:33.390Z,18.30
2017-10-18T16:37:02.454Z,18.20
2017-10-18T16:39:30.034Z,18.10
2017-10-18T16:41:58.369Z,17.90
2017-10-18T16:44:28.805Z,17.90
2017-10-18T16:46:56.358Z,17.80
2017-10-18T16:49:23.938Z,17.70
2017-10-18T16:51:51.518Z,17.60
2017-10-18T16:54:19.860Z,17.40
2017-10-18T16:56:47.441Z,17.30
2017-10-18T16:59:15.034Z,17.30
2017-10-18T17:01:43.438Z,17.10
2017-10-18T17:04:10.985Z,17.00
2017-10-18T17:06:38.554Z,17.00
2017-10-18T17:09:06.128Z,16.90
2017-10-18T17:11:33.709Z,16.80
2017-10-18T17:14:01.277Z,16.80
2017-10-18T17:16:28.965Z,16.60
2017-10-18T17:18:57.293Z,16.30
2017-10-18T17:21:24.858Z,16.30
2017-10-18T17:23:52.459Z,16.20
2017-10-18T17:26:20.793Z,16.10
2017-10-18T17:28:48.351Z,16.00
2017-10-18T17:31:15.919Z,16.00
2017-10-18T17:33:43.478Z,15.90
2017-10-18T17:36:11.047Z,15.80
2017-10-18T17:38:38.616Z,15.80
2017-10-18T17:41:06.195Z,15.70
2017-10-18T17:43:33.769Z,15.60
2017-10-18T17:46:02.132Z,15.40
2017-10-18T17:48:30.488Z,15.30
2017-10-18T17:50:58.072Z,15.30
2017-10-18T17:53:25.762Z,15.20
2017-10-18T17:55:54.112Z,14.90
2017-10-18T17:58:21.681Z,14.90
2017-10-18T18:00:49.243Z,14.80
2017-10-18T18:03:17.557Z,14.50
2017-10-18T18:05:45.180Z,14.50
2017-10-18T18:08:12.769Z,14.40
2017-10-18T18:10:40.330Z,14.30
2017-10-18T18:13:07.889Z,14.30
2017-10-18T18:15:35.452Z,14.30
2017-10-18T18:18:03.062Z,14.40
2017-10-18T18:20:30.643Z,14.30
2017-10-18T18:22:58.998Z,14.20
2017-10-18T18:25:26.572Z,14.20
2017-10-18T18:27:54.918Z,14.10
2017-10-18T18:30:22.465Z,14.00
2017-10-18T18:32:50.028Z,14.00
2017-10-18T18:35:17.622Z,14.00
2017-10-18T18:37:45.237Z,14.00
2017-10-18T18:40:12.803Z,14.00
2017-10-18T18:42:40.390Z,13.90
2017-10-18T18:45:07.995Z,13.90
2017-10-18T18:47:36.339Z,13.80
2017-10-18T18:50:03.946Z,13.70
2017-10-18T18:52:32.291Z,13.70
2017-10-18T18:54:59.881Z,13.60
2017-10-18T18:57:28.312Z,13.60
2017-10-18T18:59:55.890Z,13.60
2017-10-18T19:02:23.481Z,13.50
2017-10-18T19:04:51.837Z,13.40
2017-10-18T19:07:19.406Z,13.40
2017-10-18T19:09:47.754Z,13.30
2017-10-18T19:12:15.323Z,13.20
2017-10-18T19:14:42.889Z,13.20
2017-10-18T19:17:10.482Z,13.20
2017-10-18T19:19:38.104Z,13.20
2017-10-18T19:22:05.738Z,13.10
2017-10-18T19:24:33.335Z,13.10
2017-10-18T19:27:00.923Z,13.10
2017-10-18T19:29:29.291Z,13.00
2017-10-18T19:31:57.618Z,12.90
2017-10-18T19:34:25.195Z,12.90
2017-10-18T19:36:52.756Z,12.90
2017-10-18T19:39:20.330Z,12.80
2017-10-18T19:41:47.892Z,12.80
2017-10-18T19:44:15.513Z,12.70
2017-10-18T19:46:43.061Z,12.70
2017-10-18T19:49:10.622Z,12.60
2017-10-18T19:51:39.611Z,12.60
2017-10-18T19:54:07.209Z,12.50
2017-10-18T19:56:34.830Z,12.50
2017-10-18T19:59:02.396Z,12.50
2017-10-18T20:01:30.004Z,12.50
2017-10-18T20:03:57.582Z,12.50
2017-10-18T20:06:25.178Z,12.50
2017-10-18T20:08:54.238Z,12.40
2017-10-18T20:11:21.876Z,12.40
2017-10-18T20:13:50.413Z,12.40
2017-10-18T20:16:18.233Z,12.40
2017-10-18T20:18:45.829Z,12.30
2017-10-18T20:21:15.973Z,12.30
2017-10-18T20:23:44.866Z,12.30
2017-10-18T20:26:12.914Z,12.30
2017-10-18T20:28:40.949Z,12.20
2017-10-18T20:31:08.680Z,12.10
2017-10-18T20:40:23.641Z,12.00
2017-10-18T20:42:51.500Z,12.00
2017-10-18T20:45:19.429Z,12.00
2017-10-18T20:47:47.645Z,12.00
2017-10-18T20:50:15.225Z,12.00
2017-10-18T20:52:42.780Z,12.00
2017-10-18T20:55:10.370Z,11.90
2017-10-18T20:57:42.455Z,11.80
2017-10-18T21:00:10.057Z,11.80
2017-10-18T21:02:37.622Z,11.80
2017-10-18T21:05:05.405Z,11.80
2017-10-18T21:07:33.074Z,11.80
2017-10-18T21:10:01.584Z,11.80
2017-10-18T21:12:29.153Z,11.80
2017-10-18T21:14:56.742Z,11.80
2017-10-18T21:17:24.328Z,11.80
2017-10-18T21:19:52.655Z,11.80
2017-10-18T21:22:20.251Z,11.70
2017-10-18T21:24:47.820Z,11.70
2017-10-18T21:27:15.406Z,11.70
2017-10-18T21:29:42.984Z,11.70
2017-10-18T21:32:13.641Z,11.60
2017-10-18T21:34:41.448Z,11.50
2017-10-18T21:37:10.145Z,11.50
2017-10-18T21:39:38.453Z,11.50
2017-10-18T21:42:06.042Z,11.40
2017-10-18T21:44:33.624Z,11.40
2017-10-18T21:47:01.207Z,11.40
2017-10-18T21:49:29.542Z,11.40
2017-10-18T21:51:57.093Z,11.40
2017-10-18T21:54:24.673Z,11.30
2017-10-18T21:56:52.229Z,11.30
2017-10-18T21:59:19.800Z,11.30
2017-10-18T22:01:47.367Z,11.30
2017-10-18T22:04:14.939Z,11.20
2017-10-18T22:06:43.264Z,11.20
2017-10-18T22:09:10.826Z,11.10
2017-10-18T22:11:38.381Z,11.10
2017-10-18T22:14:05.957Z,11.00
2017-10-18T22:16:33.527Z,11.00
2017-10-18T22:19:01.098Z,11.00
2017-10-18T22:21:28.698Z,10.90
2017-10-18T22:23:56.302Z,10.90
2017-10-18T22:26:23.842Z,10.90
2017-10-18T22:28:51.396Z,10.80
2017-10-18T22:31:18.965Z,10.80
2017-10-18T22:33:46.521Z,10.80
2017-10-18T22:36:14.088Z,10.70
2017-10-18T22:38:41.670Z,10.70
2017-10-18T22:41:09.241Z,10.70
2017-10-18T22:43:36.794Z,10.60
2017-10-18T22:46:04.339Z,10.60
2017-10-18T22:48:31.902Z,10.60
2017-10-18T22:50:59.457Z,10.50
2017-10-18T22:53:27.032Z,10.50
2017-10-18T22:55:54.630Z,10.40
2017-10-18T22:58:22.961Z,10.30
2017-10-18T23:00:50.511Z,10.40
2017-10-18T23:03:18.075Z,10.30
2017-10-18T23:05:45.646Z,10.30
2017-10-18T23:08:13.201Z,10.30
2017-10-18T23:10:40.770Z,10.30
2017-10-18T23:13:08.325Z,10.30
2017-10-18T23:15:35.894Z,10.30
2017-10-18T23:18:03.462Z,10.30
2017-10-18T23:20:31.051Z,10.20
2017-10-18T23:22:58.643Z,10.20
2017-10-18T23:25:26.199Z,10.20
2017-10-18T23:27:53.768Z,10.20
2017-10-18T23:30:21.312Z,10.20
2017-10-18T23:32:48.873Z,10.20
2017-10-18T23:35:16.456Z,10.10
2017-10-18T23:37:44.025Z,10.10
2017-10-18T23:40:11.583Z,10.10
2017-10-18T23:42:39.157Z,10.10
2017-10-18T23:45:06.730Z,10.00
2017-10-18T23:47:34.306Z,10.10
2017-10-18T23:50:02.648Z,9.90
2017-10-18T23:52:35.811Z,9.90
2017-10-18T23:55:03.360Z,9.90
2017-10-18T23:57:30.901Z,9.90
2017-10-18T23:59:59.242Z,9.80
